Time;durP1;ratioP1;P1;durP2;ratioP2;P2;SDS_P1;SDS_P2;PMS_P1;PMS_P2;Temp;Humidity;BMP_temperature;BMP_pressure;BME280_temperature;BME280_humidity;BME280_pressure;Samples;Min_cycle;Max_cycle;Signal;HPM_P1;HPM_P2
2023/06/12 00:01:19;;;;;;;;;;;;;;;20.94;60.66;98908.78;5133229;27;19912;-78
2023/06/12 00:03:47;;;;;;;;;;;;;;;20.92;61.02;98916.28;5133052;27;19911;-78
2023/06/12 00:06:14;;;;;;;;;;;;;;;20.92;59.38;98919.78;5133222;27;19919;-78
2023/06/12 00:11:23;;;;;;;;;;;;;;;20.73;61.75;98931.97;5133050;27;19922;-78
2023/06/12 00:13:49;;;;;;;;;;;;;;;20.61;60.46;98934.84;5133084;27;19916;-78
2023/06/12 00:16:15;;;;;;;;;;;;;;;20.60;59.67;98935.09;5133115;27;19912;-78
2023/06/12 00:18:41;;;;;;;;;;;;;;;20.60;59.91;98935.91;5133084;27;19923;-78
2023/06/12 00:21:10;;;;;;;;;;;;;;;20.63;60.30;98932.72;5133204;27;19943;-78
2023/06/12 00:23:39;;;;;;;;;;;;;;;20.57;60.19;98939.09;5132831;27;19915;-78
2023/06/12 00:26:06;;;;;;;;;;;;;;;20.53;59.57;98934.53;5132924;27;19918;-78
2023/06/12 00:28:31;;;;;;;;;;;;;;;20.51;60.16;98939.31;5132473;27;20408;-77
2023/06/12 00:30:56;;;;;;;;;;;;;;;20.49;59.49;98936.91;5132554;28;19912;-77
2023/06/12 00:33:22;;;;;;;;;;;;;;;20.46;61.15;98939.28;5132662;28;19923;-77
2023/06/12 00:35:48;;;;;;;;;;;;;;;20.43;60.88;98929.88;5131405;28;20300;-78
2023/06/12 00:38:14;;;;;;;;;;;;;;;20.47;61.00;98946.28;5132558;28;19973;-78
2023/06/12 00:40:40;;;;;;;;;;;;;;;20.49;60.83;98941.47;5132743;28;19911;-77
2023/06/12 00:43:05;;;;;;;;;;;;;;;20.48;60.89;98937.97;5132819;28;20311;-78
2023/06/12 00:45:30;;;;;;;;;;;;;;;20.49;60.39;98936.91;5132704;28;20277;-78
2023/06/12 00:47:56;;;;;;;;;;;;;;;20.50;60.82;98935.03;5132623;28;19907;-78
2023/06/12 00:50:26;;;;;;;;;;;;;;;20.46;61.10;98931.25;5131310;28;20296;-78
2023/06/12 00:52:51;;;;;;;;;;;;;;;20.48;59.63;98929.13;5134237;27;19964;-78
2023/06/12 00:55:16;;;;;;;;;;;;;;;20.50;60.13;98922.44;5136838;27;19907;-78
2023/06/12 00:57:43;;;;;;;;;;;;;;;20.54;60.61;98918.16;5136753;27;19915;-78
2023/06/12 01:00:11;;;;;;;;;;;;;;;20.57;60.40;98917.66;5136611;27;20388;-78
2023/06/12 01:02:39;;;;;;;;;;;;;;;20.54;59.31;98915.50;5135248;27;19916;-78
2023/06/12 01:05:08;;;;;;;;;;;;;;;20.48;61.01;98919.19;5136470;27;19916;-78
2023/06/12 01:07:50;;;;;;;;;;;;;;;20.44;60.21;98918.09;5135165;27;19967;-77
2023/06/12 01:10:22;;;;;;;;;;;;;;;20.40;59.38;98913.50;5136601;27;19977;-78
2023/06/12 01:12:47;;;;;;;;;;;;;;;20.39;60.25;98910.03;5136480;27;19911;-78
2023/06/12 01:15:14;;;;;;;;;;;;;;;20.34;60.59;98909.94;5136209;27;20440;-78
2023/06/12 01:17:41;;;;;;;;;;;;;;;20.31;60.41;98908.59;5134989;27;20471;-78
2023/06/12 01:20:13;;;;;;;;;;;;;;;20.33;59.75;98918.25;5134951;27;20312;-78
2023/06/12 01:22:58;;;;;;;;;;;;;;;20.30;60.23;98915.03;5134994;27;19934;-78
2023/06/12 01:25:32;;;;;;;;;;;;;;;20.22;60.08;98918.16;5125195;27;20391;-78
2023/06/12 01:28:21;;;;;;;;;;;;;;;20.17;60.57;98915.44;5135852;27;19924;-78
2023/06/12 01:30:59;;;;;;;;;;;;;;;20.15;60.74;98908.72;5124567;27;19911;-78
2023/06/12 01:33:32;;;;;;;;;;;;;;;20.17;59.44;98912.78;5134710;27;19910;-78
2023/06/12 01:36:00;;;;;;;;;;;;;;;20.12;59.86;98918.09;5135890;27;19911;-78
2023/06/12 01:38:27;;;;;;;;;;;;;;;20.02;60.69;98923.31;5135846;27;19915;-78
2023/06/12 01:40:53;;;;;;;;;;;;;;;19.95;60.23;98922.72;5134573;27;19969;-78
2023/06/12 01:43:21;;;;;;;;;;;;;;;19.82;60.67;98920.47;5136045;27;19912;-78
2023/06/12 01:45:46;;;;;;;;;;;;;;;19.70;61.50;98928.66;5134965;27;19911;-78
2023/06/12 01:48:13;;;;;;;;;;;;;;;19.71;60.35;98940.16;5135841;27;19929;-77
2023/06/12 01:50:38;;;;;;;;;;;;;;;19.74;60.60;98931.63;5136007;27;19915;-78
2023/06/12 01:53:04;;;;;;;;;;;;;;;19.74;60.36;98934.31;5136025;27;19917;-78
2023/06/12 01:55:29;;;;;;;;;;;;;;;19.72;60.70;98933.75;5136114;27;19911;-77
2023/06/12 01:57:54;;;;;;;;;;;;;;;19.72;60.66;98936.44;5135764;27;19976;-78
2023/06/12 02:00:19;;;;;;;;;;;;;;;19.67;59.89;98942.53;5135715;27;20386;-78
2023/06/12 02:02:45;;;;;;;;;;;;;;;19.61;60.53;98925.63;5135468;27;19915;-78
2023/06/12 02:05:10;;;;;;;;;;;;;;;19.61;60.61;98925.63;5135059;27;19912;-78
2023/06/12 02:07:36;;;;;;;;;;;;;;;19.65;59.81;98921.38;5135529;27;19912;-78
2023/06/12 02:10:01;;;;;;;;;;;;;;;19.63;60.55;98914.66;5135523;27;20403;-78
2023/06/12 02:12:27;;;;;;;;;;;;;;;19.54;60.47;98925.00;5135530;27;19919;-79
2023/06/12 02:14:53;;;;;;;;;;;;;;;19.52;59.73;98934.31;5135155;27;19930;-78
2023/06/12 02:17:19;;;;;;;;;;;;;;;19.46;59.73;98936.13;5135421;27;20334;-77
2023/06/12 02:19:44;;;;;;;;;;;;;;;19.43;61.07;98943.84;5135029;27;20006;-78
2023/06/12 02:22:09;;;;;;;;;;;;;;;19.44;59.84;98938.25;5133877;27;19911;-78
2023/06/12 02:24:35;;;;;;;;;;;;;;;19.45;60.50;98936.38;5134840;27;19918;-78
2023/06/12 02:27:01;;;;;;;;;;;;;;;19.42;60.58;98940.38;5134687;27;19914;-78
2023/06/12 02:29:26;;;;;;;;;;;;;;;19.43;59.99;98939.31;5134878;27;19926;-78
2023/06/12 02:31:51;;;;;;;;;;;;;;;19.42;60.48;98940.38;5133945;27;19918;-77
2023/06/12 02:34:16;;;;;;;;;;;;;;;19.48;60.34;98950.06;5134130;27;19925;-78
2023/06/12 02:36:42;;;;;;;;;;;;;;;19.55;60.40;98945.38;5135076;27;19911;-78
2023/06/12 02:39:08;;;;;;;;;;;;;;;19.61;59.75;98956.94;5135245;27;20376;-79
2023/06/12 02:41:34;;;;;;;;;;;;;;;19.65;59.54;98958.88;5135287;27;19912;-77
2023/06/12 02:44:00;;;;;;;;;;;;;;;19.70;59.68;98957.31;5133490;27;19919;-79
2023/06/12 02:46:25;;;;;;;;;;;;;;;19.68;59.75;98965.59;5134484;27;19911;-78
2023/06/12 02:48:50;;;;;;;;;;;;;;;19.65;59.58;98963.41;5134545;27;19967;-78
2023/06/12 02:51:15;;;;;;;;;;;;;;;19.66;59.29;98968.53;5134387;27;19918;-78
2023/06/12 02:53:41;;;;;;;;;;;;;;;19.68;60.16;98974.44;5134712;27;20361;-78
2023/06/12 02:56:06;;;;;;;;;;;;;;;19.70;59.21;98968.00;5134443;27;19912;-78
2023/06/12 02:58:32;;;;;;;;;;;;;;;19.64;60.19;98980.53;5134254;27;20369;-77
2023/06/12 03:00:58;;;;;;;;;;;;;;;19.65;60.05;98972.25;5133060;27;20345;-78
2023/06/12 03:03:25;;;;;;;;;;;;;;;19.68;59.97;98971.75;5132978;27;19911;-77
2023/06/12 03:05:50;;;;;;;;;;;;;;;19.71;60.13;98985.69;5133987;27;19912;-78
2023/06/12 03:08:16;;;;;;;;;;;;;;;19.75;60.01;98982.28;5133983;27;19912;-78
2023/06/12 03:10:41;;;;;;;;;;;;;;;19.77;60.26;98984.69;5134253;27;19918;-78
2023/06/12 03:13:07;;;;;;;;;;;;;;;19.82;59.63;98987.44;5133990;27;19918;-78
2023/06/12 03:15:33;;;;;;;;;;;;;;;19.87;60.65;98988.28;5132860;27;20379;-78
2023/06/12 03:17:59;;;;;;;;;;;;;;;19.91;60.47;98991.28;5133721;27;19903;-78
2023/06/12 03:20:24;;;;;;;;;;;;;;;19.98;60.17;98991.88;5134067;27;19911;-78
2023/06/12 03:22:50;;;;;;;;;;;;;;;20.03;58.99;98991.13;5133936;27;20418;-78
2023/06/12 03:25:18;;;;;;;;;;;;;;;20.01;60.23;98991.38;5133834;27;19919;-78
2023/06/12 03:27:44;;;;;;;;;;;;;;;20.02;60.06;98994.88;5133868;27;20400;-79
2023/06/12 03:30:09;;;;;;;;;;;;;;;19.99;60.36;98986.28;5134932;27;19918;-78
2023/06/12 03:32:34;;;;;;;;;;;;;;;19.99;60.59;98996.19;5132874;27;19914;-78
2023/06/12 03:35:00;;;;;;;;;;;;;;;19.95;60.62;98997.75;5134386;27;19918;-78
2023/06/12 03:37:28;;;;;;;;;;;;;;;19.97;60.48;99004.47;5132974;27;19911;-78
2023/06/12 03:39:53;;;;;;;;;;;;;;;19.97;59.92;99001.00;5133686;27;19998;-78
2023/06/12 03:42:18;;;;;;;;;;;;;;;19.99;60.55;98998.88;5132697;27;19974;-78
2023/06/12 03:44:43;;;;;;;;;;;;;;;20.06;60.39;98998.66;5133297;27;20471;-78
2023/06/12 03:47:11;;;;;;;;;;;;;;;20.09;60.74;98998.19;5132161;27;20307;-78
2023/06/12 03:49:37;;;;;;;;;;;;;;;20.13;59.57;99000.13;5133216;27;19915;-78
2023/06/12 03:52:03;;;;;;;;;;;;;;;20.15;59.88;98997.19;5131644;27;19961;-79
2023/06/12 03:54:28;;;;;;;;;;;;;;;20.08;61.21;98993.91;5131917;27;19964;-78
2023/06/12 03:56:53;;;;;;;;;;;;;;;20.07;61.26;99005.69;5131928;27;20406;-78
2023/06/12 03:59:18;;;;;;;;;;;;;;;20.09;59.94;99006.22;5132131;27;19919;-77
2023/06/12 04:01:44;;;;;;;;;;;;;;;20.07;60.24;99001.13;5133612;27;19912;-78
2023/06/12 04:04:10;;;;;;;;;;;;;;;20.07;60.12;99008.34;5131928;27;19911;-78
2023/06/12 04:06:40;;;;;;;;;;;;;;;20.05;58.81;99005.91;5133332;27;19918;-78
2023/06/12 04:09:07;;;;;;;;;;;;;;;20.03;59.89;99001.84;5133224;27;19994;-77
2023/06/12 04:11:34;;;;;;;;;;;;;;;20.02;59.57;98998.38;5133495;27;19911;-78
2023/06/12 04:14:00;;;;;;;;;;;;;;;20.01;59.48;98999.44;5133333;27;19912;-78
2023/06/12 04:16:25;;;;;;;;;;;;;;;20.00;59.83;99001.28;5131871;27;19986;-78
2023/06/12 04:18:50;;;;;;;;;;;;;;;20.01;59.62;99002.09;5133067;27;19976;-78
2023/06/12 04:21:16;;;;;;;;;;;;;;;20.00;59.73;99003.16;5133130;27;19911;-78
2023/06/12 04:23:47;;;;;;;;;;;;;;;20.04;59.82;99001.59;5133206;27;19911;-78
2023/06/12 04:26:12;;;;;;;;;;;;;;;20.04;59.25;99003.47;5133092;27;19968;-78
2023/06/12 04:28:38;;;;;;;;;;;;;;;20.04;59.41;99004.28;5132847;27;20341;-77
2023/06/12 04:31:03;;;;;;;;;;;;;;;20.09;59.54;99003.56;5132907;27;19912;-78
2023/06/12 04:33:32;;;;;;;;;;;;;;;20.08;59.22;99002.75;5133136;28;20384;-78
2023/06/12 04:36:01;;;;;;;;;;;;;;;20.08;60.08;98999.25;5133501;28;19915;-78
2023/06/12 04:38:27;;;;;;;;;;;;;;;20.07;59.99;99011.84;5133054;28;19915;-77
2023/06/12 04:40:54;;;;;;;;;;;;;;;20.13;60.39;99004.66;5133290;28;19919;-78
2023/06/12 04:43:19;;;;;;;;;;;;;;;20.20;60.10;98997.22;5132941;28;19911;-78
2023/06/12 04:45:45;;;;;;;;;;;;;;;20.22;59.40;99005.81;5132602;28;19933;-78
2023/06/12 04:48:11;;;;;;;;;;;;;;;20.23;59.25;99004.75;5132779;28;19926;-79
2023/06/12 04:50:36;;;;;;;;;;;;;;;20.30;59.79;99008.03;5132461;28;19911;-78
2023/06/12 04:53:01;;;;;;;;;;;;;;;20.36;60.14;99004.34;5132408;28;20023;-78
2023/06/12 04:55:28;;;;;;;;;;;;;;;20.42;59.42;99010.59;5132550;28;19911;-78
2023/06/12 04:57:53;;;;;;;;;;;;;;;20.44;59.86;99016.50;5132550;28;19939;-78
2023/06/12 05:00:19;;;;;;;;;;;;;;;20.49;59.00;99016.56;5131751;28;20370;-77
2023/06/12 05:02:46;;;;;;;;;;;;;;;20.57;59.23;99008.84;5132868;28;19968;-78
2023/06/12 05:05:11;;;;;;;;;;;;;;;20.61;59.33;99009.94;5132887;28;19920;-78
2023/06/12 05:07:36;;;;;;;;;;;;;;;20.68;58.82;99004.38;5132652;28;19912;-77
2023/06/12 05:10:02;;;;;;;;;;;;;;;20.73;59.09;99004.41;5132944;28;19967;-78
2023/06/12 05:12:28;;;;;;;;;;;;;;;20.80;59.04;99012.22;5132801;28;19911;-79
2023/06/12 05:14:53;;;;;;;;;;;;;;;20.88;59.13;99012.59;5132539;28;19919;-78
2023/06/12 05:17:18;;;;;;;;;;;;;;;20.95;59.49;99004.31;5132621;28;20311;-78
2023/06/12 05:19:43;;;;;;;;;;;;;;;21.01;58.75;99013.22;5132576;28;19915;-78
2023/06/12 05:22:09;;;;;;;;;;;;;;;21.07;59.57;99004.13;5132567;28;19918;-78
2023/06/12 05:24:34;;;;;;;;;;;;;;;21.11;58.84;99002.53;5132751;28;19911;-79
2023/06/12 05:27:00;;;;;;;;;;;;;;;21.19;59.02;99002.03;5132525;28;20388;-78
2023/06/12 05:29:26;;;;;;;;;;;;;;;21.27;59.17;99004.25;5132068;28;19919;-78
2023/06/12 05:31:51;;;;;;;;;;;;;;;21.32;59.92;99006.97;5132221;28;19939;-77
2023/06/12 05:34:17;;;;;;;;;;;;;;;21.31;59.20;99012.59;5132190;28;19968;-76
2023/06/12 05:36:42;;;;;;;;;;;;;;;21.38;58.84;99011.31;5131975;28;19922;-78
2023/06/12 05:39:07;;;;;;;;;;;;;;;21.44;59.14;99017.50;5133808;27;19968;-77
2023/06/12 05:41:32;;;;;;;;;;;;;;;21.50;58.66;99019.16;5135727;27;19937;-77
2023/06/12 05:43:58;;;;;;;;;;;;;;;21.60;58.83;99026.47;5131565;27;20316;-79
2023/06/12 05:46:23;;;;;;;;;;;;;;;21.66;59.38;99018.16;5135601;27;19919;-78
2023/06/12 05:48:49;;;;;;;;;;;;;;;21.72;58.88;99021.69;5135671;27;19911;-79
2023/06/12 05:51:15;;;;;;;;;;;;;;;21.78;58.61;99017.94;5122575;27;19917;-78
2023/06/12 05:53:44;;;;;;;;;;;;;;;21.85;58.54;99026.56;5115147;28;20346;-78
2023/06/12 05:56:10;;;;;;;;;;;;;;;21.82;57.67;99019.03;5114876;28;20408;-78
2023/06/12 05:58:36;;;;;;;;;;;;;;;21.83;58.46;99021.44;5114769;28;19922;-78
2023/06/12 06:01:02;;;;;;;;;;;;;;;21.89;57.71;99024.97;5115103;28;19912;-77
2023/06/12 06:03:32;;;;;;;;;;;;;;;21.86;58.87;99014.75;5113960;28;20369;-78
2023/06/12 06:05:58;;;;;;;;;;;;;;;21.84;58.50;99014.19;5095052;28;19920;-78
2023/06/12 06:08:23;;;;;;;;;;;;;;;21.93;58.21;99020.66;5101918;28;19915;-76
2023/06/12 06:10:48;;;;;;;;;;;;;;;21.98;58.31;99022.56;5115189;28;19919;-78
2023/06/12 06:13:13;;;;;;;;;;;;;;;21.99;58.06;99034.94;5114571;28;19951;-75
2023/06/12 06:15:39;;;;;;;;;;;;;;;22.02;58.07;99037.09;5113489;27;19916;-78
2023/06/12 06:18:04;;;;;;;;;;;;;;;22.07;58.06;99032.56;5119712;27;19915;-78
2023/06/12 06:20:29;;;;;;;;;;;;;;;22.14;58.67;99029.63;5123325;27;19916;-76
2023/06/12 06:22:54;;;;;;;;;;;;;;;22.18;57.68;99031.50;5113207;28;19923;-77
2023/06/12 06:25:20;;;;;;;;;;;;;;;22.24;57.55;99024.25;5114703;28;20316;-80
2023/06/12 06:27:46;;;;;;;;;;;;;;;22.31;57.61;99034.78;5124159;27;19923;-79
2023/06/12 06:30:13;;;;;;;;;;;;;;;22.36;57.06;99040.19;5129846;27;20470;-77
2023/06/12 06:32:39;;;;;;;;;;;;;;;22.41;57.33;99050.94;5104648;27;20304;-77
2023/06/12 06:35:04;;;;;;;;;;;;;;;22.49;57.19;99045.03;5130595;27;20094;-78
2023/06/12 06:37:29;;;;;;;;;;;;;;;22.54;57.20;99053.09;5135277;27;19915;-76
2023/06/12 06:39:54;;;;;;;;;;;;;;;22.55;58.02;99052.03;5134352;27;20456;-76
2023/06/12 06:42:20;;;;;;;;;;;;;;;22.58;57.51;99048.81;5133308;27;20299;-79
2023/06/12 06:44:45;;;;;;;;;;;;;;;22.61;56.80;99050.97;5129269;27;19972;-78
2023/06/12 06:47:11;;;;;;;;;;;;;;;22.67;57.53;99051.75;5119610;27;19922;-77
2023/06/12 06:49:37;;;;;;;;;;;;;;;22.73;56.69;99053.38;5113699;28;19951;-78
2023/06/12 06:52:03;;;;;;;;;;;;;;;22.79;56.41;99053.13;5113838;28;19926;-78
2023/06/12 06:54:28;;;;;;;;;;;;;;;22.86;55.88;99052.06;5113452;28;19912;-78
2023/06/12 06:56:53;;;;;;;;;;;;;;;22.92;56.92;99050.97;5112138;28;20049;-78
2023/06/12 06:59:18;;;;;;;;;;;;;;;22.98;56.17;99048.00;5114636;27;19927;-77
2023/06/12 07:01:44;;;;;;;;;;;;;;;23.01;56.25;99044.78;5134144;27;19911;-77
2023/06/12 07:04:09;;;;;;;;;;;;;;;23.06;55.64;99034.03;5132751;27;19954;-77
2023/06/12 07:06:34;;;;;;;;;;;;;;;23.14;55.48;99038.06;5121463;27;19916;-76
2023/06/12 07:09:00;;;;;;;;;;;;;;;23.16;55.03;99035.91;5113138;28;19916;-78
2023/06/12 07:11:26;;;;;;;;;;;;;;;23.18;55.07;99036.44;5102800;28;20366;-80
2023/06/12 07:13:51;;;;;;;;;;;;;;;23.20;55.30;99030.78;5093023;28;19912;-78
2023/06/12 07:16:17;;;;;;;;;;;;;;;23.27;55.23;99028.59;5104432;27;20441;-78
2023/06/12 07:18:42;;;;;;;;;;;;;;;23.36;54.42;99027.75;5118973;27;19971;-77
2023/06/12 07:21:07;;;;;;;;;;;;;;;23.49;54.05;99017.47;5112739;28;20373;-78
2023/06/12 07:23:32;;;;;;;;;;;;;;;23.53;54.35;99023.94;5112887;28;19912;-78
2023/06/12 07:25:57;;;;;;;;;;;;;;;23.59;54.40;99020.97;5112988;28;19919;-77
2023/06/12 07:28:23;;;;;;;;;;;;;;;23.65;54.08;99016.38;5112498;27;20407;-79
2023/06/12 07:30:48;;;;;;;;;;;;;;;23.74;53.62;99025.50;5104285;27;19961;-78
2023/06/12 07:33:14;;;;;;;;;;;;;;;23.80;53.58;99024.41;5107045;27;20448;-76
2023/06/12 07:35:40;;;;;;;;;;;;;;;23.88;53.71;99020.34;5101826;28;19994;-76
2023/06/12 07:38:05;;;;;;;;;;;;;;;23.94;53.05;99017.34;5106678;27;20529;-77
2023/06/12 07:40:30;;;;;;;;;;;;;;;24.01;53.11;99017.84;5113902;27;19931;-78
2023/06/12 07:42:56;;;;;;;;;;;;;;;24.09;52.79;99014.53;5101909;27;20007;-79
2023/06/12 07:45:21;;;;;;;;;;;;;;;24.15;53.14;99022.59;5101247;27;19912;-78
2023/06/12 07:47:47;;;;;;;;;;;;;;;24.22;52.67;99021.22;5108630;27;19923;-78
2023/06/12 07:50:12;;;;;;;;;;;;;;;24.33;52.24;99019.28;5096614;27;19926;-78
2023/06/12 07:52:38;;;;;;;;;;;;;;;24.41;52.37;99018.69;5106336;27;19911;-78
2023/06/12 07:55:03;;;;;;;;;;;;;;;24.44;52.47;99020.81;5100062;27;20069;-78
2023/06/12 07:57:29;;;;;;;;;;;;;;;24.52;52.17;99014.00;5096473;27;19942;-78
2023/06/12 07:59:54;;;;;;;;;;;;;;;24.55;52.21;99021.56;5129244;27;20303;-78
2023/06/12 08:02:20;;;;;;;;;;;;;;;24.52;52.25;99020.22;5105769;27;19985;-78
2023/06/12 08:04:46;;;;;;;;;;;;;;;24.55;52.32;99014.28;5112018;27;20348;-79
2023/06/12 08:07:13;;;;;;;;;;;;;;;24.62;52.38;99013.97;5127583;27;20002;-79
2023/06/12 08:09:39;;;;;;;;;;;;;;;24.75;51.87;99024.09;5114497;27;19916;-78
2023/06/12 08:12:05;;;;;;;;;;;;;;;24.85;51.61;99018.59;5110353;27;19923;-78
2023/06/12 08:14:30;;;;;;;;;;;;;;;24.89;51.81;99016.16;5104579;27;19920;-77
2023/06/12 08:16:55;;;;;;;;;;;;;;;24.88;52.06;99017.22;5109238;27;19961;-77
2023/06/12 08:19:20;;;;;;;;;;;;;;;24.98;51.81;99012.56;5109397;28;19919;-78
2023/06/12 08:21:46;;;;;;;;;;;;;;;25.03;51.38;99015.22;5096627;27;19935;-78
2023/06/12 08:24:13;;;;;;;;;;;;;;;25.12;51.26;99004.59;5101848;28;19915;-78
2023/06/12 08:26:38;;;;;;;;;;;;;;;25.20;51.48;99006.66;5105042;27;19923;-77
2023/06/12 08:29:03;;;;;;;;;;;;;;;25.32;51.33;99007.09;5119920;28;19919;-78
2023/06/12 08:34:12;;;;;;;;;;;;;;;25.46;51.11;98999.09;5102183;28;19984;-78
2023/06/12 08:36:38;;;;;;;;;;;;;;;25.59;50.66;98994.91;5113193;28;20339;-77
2023/06/12 08:39:03;;;;;;;;;;;;;;;25.72;50.62;98996.91;5111982;28;20015;-79
2023/06/12 08:41:30;;;;;;;;;;;;;;;25.80;50.31;98990.06;5093764;28;19916;-77
2023/06/12 08:43:56;;;;;;;;;;;;;;;25.78;50.54;98992.25;5130223;28;19920;-78
2023/06/12 08:46:22;;;;;;;;;;;;;;;25.83;50.75;98990.28;5125267;28;20328;-77
2023/06/12 08:48:48;;;;;;;;;;;;;;;25.88;50.77;98990.22;5095137;28;19919;-77
2023/06/12 08:51:13;;;;;;;;;;;;;;;26.03;50.14;98988.41;5099607;28;19928;-77
2023/06/12 08:53:39;;;;;;;;;;;;;;;26.06;49.91;98995.94;5098114;28;19917;-79
2023/06/12 08:56:06;;;;;;;;;;;;;;;26.06;49.85;98987.81;5111351;28;19916;-78
2023/06/12 08:58:31;;;;;;;;;;;;;;;26.00;50.06;98983.56;5112614;28;20014;-80
2023/06/12 09:00:57;;;;;;;;;;;;;;;25.89;49.79;98980.19;5110440;28;19955;-78
2023/06/12 09:03:22;;;;;;;;;;;;;;;25.91;50.31;98978.00;5092117;28;19927;-76
2023/06/12 09:05:51;;;;;;;;;;;;;;;26.00;50.11;98976.25;5091796;28;19946;-76
2023/06/12 09:08:16;;;;;;;;;;;;;;;26.02;50.04;98979.50;5091576;28;19966;-80
2023/06/12 09:10:42;;;;;;;;;;;;;;;26.03;50.06;98977.59;5103803;28;20392;-77
2023/06/12 09:13:09;;;;;;;;;;;;;;;26.15;49.96;98973.34;5111697;28;19980;-76
2023/06/12 09:15:35;;;;;;;;;;;;;;;26.27;49.88;98972.88;5098869;27;19995;-78
2023/06/12 09:18:01;;;;;;;;;;;;;;;26.43;49.12;98976.19;5101469;27;19980;-78
2023/06/12 09:20:27;;;;;;;;;;;;;;;26.54;49.22;98975.72;5115220;27;20343;-77
2023/06/12 09:22:53;;;;;;;;;;;;;;;26.67;48.93;98966.03;5116269;27;19919;-79
2023/06/12 09:25:18;;;;;;;;;;;;;;;26.85;48.63;98967.09;5120491;27;19976;-76
2023/06/12 09:27:44;;;;;;;;;;;;;;;27.00;48.03;98966.03;5114127;28;19920;-78
2023/06/12 09:30:10;;;;;;;;;;;;;;;26.90;47.90;98961.56;5109514;27;19916;-78
2023/06/12 09:32:35;;;;;;;;;;;;;;;27.09;47.79;98962.31;5110082;27;19981;-77
2023/06/12 09:35:01;;;;;;;;;;;;;;;27.33;47.50;98966.75;5113500;27;20002;-79
2023/06/12 09:37:26;;;;;;;;;;;;;;;27.53;46.74;98969.06;5100823;27;19942;-77
2023/06/12 09:40:07;;;;;;;;;;;;;;;27.80;46.34;98962.81;5110700;27;20468;-78
2023/06/12 09:42:36;;;;;;;;;;;;;;;28.12;46.03;98959.09;5116505;27;19969;-78
2023/06/12 09:45:11;;;;;;;;;;;;;;;28.31;44.47;98950.81;5120228;27;20423;-78
2023/06/12 09:47:40;;;;;;;;;;;;;;;28.34;45.54;98951.00;5116931;27;19919;-78
2023/06/12 09:50:06;;;;;;;;;;;;;;;28.63;45.44;98947.03;5114993;28;19912;-78
2023/06/12 09:52:31;;;;;;;;;;;;;;;28.85;45.26;98947.00;5115003;27;19923;-78
2023/06/12 09:55:00;;;;;;;;;;;;;;;29.04;44.14;98938.63;5096578;27;20317;-76
2023/06/12 09:57:26;;;;;;;;;;;;;;;29.17;43.16;98945.88;5116602;27;19915;-78
2023/06/12 09:59:53;;;;;;;;;;;;;;;29.37;43.65;98933.63;5131334;27;19949;-78
2023/06/12 10:02:18;;;;;;;;;;;;;;;29.71;40.64;98936.41;5111937;27;19916;-77
2023/06/12 10:04:51;;;;;;;;;;;;;;;29.56;42.88;98941.53;5110433;27;20311;-78
2023/06/12 10:07:23;;;;;;;;;;;;;;;29.26;41.09;98935.03;5096383;27;19919;-75
2023/06/12 10:09:49;;;;;;;;;;;;;;;29.40;42.95;98927.53;5116737;27;19911;-78
2023/06/12 10:12:14;;;;;;;;;;;;;;;29.53;42.73;98923.91;5115542;27;20473;-77
2023/06/12 10:14:40;;;;;;;;;;;;;;;29.56;43.29;98920.56;5112472;27;20304;-78
2023/06/12 10:17:07;;;;;;;;;;;;;;;29.30;41.18;98922.41;5107558;27;20414;-78
2023/06/12 10:19:34;;;;;;;;;;;;;;;29.22;42.56;98921.25;5110716;27;19924;-77
2023/06/12 10:21:59;;;;;;;;;;;;;;;29.03;42.23;98921.53;5115056;27;20013;-77
2023/06/12 10:24:25;;;;;;;;;;;;;;;28.79;43.39;98918.34;5110593;27;19934;-77
2023/06/12 10:26:52;;;;;;;;;;;;;;;28.57;43.12;98926.53;5101857;27;19919;-76
2023/06/12 10:29:24;;;;;;;;;;;;;;;28.53;43.47;98922.84;5109345;27;19919;-76
2023/06/12 10:31:50;;;;;;;;;;;;;;;28.64;42.96;98916.81;5108357;27;19968;-77
2023/06/12 10:34:16;;;;;;;;;;;;;;;28.47;43.90;98914.81;5111486;28;19911;-78
2023/06/12 10:36:42;;;;;;;;;;;;;;;28.33;44.42;98903.25;5111948;27;20376;-77
2023/06/12 10:39:15;;;;;;;;;;;;;;;28.17;44.65;98899.25;5112335;27;20044;-78
2023/06/12 10:41:50;;;;;;;;;;;;;;;28.14;45.07;98908.81;5113162;28;19919;-78
2023/06/12 10:44:34;;;;;;;;;;;;;;;28.65;44.39;98907.56;5114176;27;19964;-78
2023/06/12 10:47:00;;;;;;;;;;;;;;;29.32;41.77;98901.13;5099609;27;19980;-78
2023/06/12 10:49:26;;;;;;;;;;;;;;;29.85;41.96;98902.84;5097229;27;19920;-77
2023/06/12 10:51:51;;;;;;;;;;;;;;;30.27;40.12;98901.22;5096612;27;20380;-78
2023/06/12 10:54:23;;;;;;;;;;;;;;;30.69;40.19;98891.38;5114008;28;19918;-77
2023/06/12 10:56:56;;;;;;;;;;;;;;;31.06;39.92;98887.03;5114067;27;20422;-77
2023/06/12 10:59:28;;;;;;;;;;;;;;;31.43;38.31;98884.63;5092590;27;20412;-77
2023/06/12 11:01:53;;;;;;;;;;;;;;;31.44;37.44;98886.22;5107458;27;19916;-78
2023/06/12 11:04:18;;;;;;;;;;;;;;;30.97;39.59;98883.56;5103686;27;20298;-76
2023/06/12 11:06:47;;;;;;;;;;;;;;;30.55;39.25;98882.59;5108765;27;19915;-76
2023/06/12 11:09:12;;;;;;;;;;;;;;;30.27;38.91;98879.44;5109398;27;19973;-78
2023/06/12 11:11:40;;;;;;;;;;;;;;;29.93;40.81;98888.41;5106151;27;19916;-76
2023/06/12 11:14:05;;;;;;;;;;;;;;;29.50;41.38;98875.59;5092863;28;19912;-78
2023/06/12 11:16:39;;;;;;;;;;;;;;;29.12;41.56;98860.94;5106484;27;19912;-79
2023/06/12 11:19:06;;;;;;;;;;;;;;;28.84;42.32;98866.59;5110822;27;19920;-76
2023/06/12 11:21:32;;;;;;;;;;;;;;;28.61;42.79;98868.56;5109692;27;20034;-78
2023/06/12 11:24:03;;;;;;;;;;;;;;;28.39;43.67;98874.84;5107898;27;19943;-79
2023/06/12 11:26:31;;;;;;;;;;;;;;;28.19;44.57;98872.59;5099181;27;19916;-78
2023/06/12 11:29:11;;;;;;;;;;;;;;;28.02;46.39;98864.34;5112508;28;19930;-76
2023/06/12 11:31:37;;;;;;;;;;;;;;;27.88;45.52;98867.13;5099590;27;19941;-76
2023/06/12 11:34:02;;;;;;;;;;;;;;;27.84;46.38;98872.34;5109037;27;19972;-77
2023/06/12 11:36:27;;;;;;;;;;;;;;;27.89;47.27;98868.72;5102341;27;19927;-76
2023/06/12 11:38:52;;;;;;;;;;;;;;;27.88;46.98;98869.81;5099198;27;20427;-77
2023/06/12 11:41:18;;;;;;;;;;;;;;;27.91;46.83;98863.78;5106886;27;19920;-77
2023/06/12 11:43:43;;;;;;;;;;;;;;;27.99;46.49;98854.09;5103882;27;19920;-77
2023/06/12 11:46:09;;;;;;;;;;;;;;;28.42;45.99;98848.97;5110856;27;20395;-75
2023/06/12 11:48:53;;;;;;;;;;;;;;;28.79;44.50;98855.84;5107105;27;19916;-78
2023/06/12 11:51:18;;;;;;;;;;;;;;;29.23;43.82;98857.59;5103053;28;19916;-76
2023/06/12 11:53:44;;;;;;;;;;;;;;;29.26;43.47;98853.47;5116557;27;20415;-78
2023/06/12 11:57:33;;;;;;;8.43;7.13;;;;;;;29.81;42.76;98859.13;5076327;27;1989500;-77
2023/06/12 11:59:59;;;;;;;8.70;6.38;;;;;;;29.96;42.16;98855.91;5124444;28;20040;-77
2023/06/12 12:02:49;;;;;;;8.60;6.32;;;;;;;30.23;41.61;98854.75;5108134;28;20027;-77
2023/06/12 12:05:21;;;;;;;6.50;5.78;;;;;;;30.22;41.06;98814.25;5128021;28;20035;-77
2023/06/12 12:07:50;;;;;;;9.52;8.32;;;;;;;30.50;40.58;98801.81;5129176;27;20403;-78
2023/06/12 12:10:15;;;;;;;7.03;4.95;;;;;;;30.96;39.88;98839.13;5128197;27;20033;-79
2023/06/12 12:12:45;;;;;;;4.75;4.13;;;;;;;31.39;38.38;98859.94;5124855;28;20035;-78
2023/06/12 12:15:13;;;;;;;5.85;5.07;;;;;;;31.05;37.71;98832.81;5125192;28;20015;-78
2023/06/12 12:17:40;;;;;;;9.40;5.93;;;;;;;31.22;37.56;98852.66;5110065;28;20539;-76
2023/06/12 12:20:12;;;;;;;5.43;4.57;;;;;;;30.80;37.46;98793.69;5112285;28;20051;-75
2023/06/12 12:22:39;;;;;;;6.78;4.75;;;;;;;31.36;37.17;98837.97;5106939;28;20055;-79
2023/06/12 12:25:06;;;;;;;5.80;4.15;;;;;;;30.80;36.89;98794.50;5127770;28;20016;-76
2023/06/12 12:27:32;;;;;;;6.90;4.40;;;;;;;30.60;37.17;98798.75;5125854;28;20062;-78
2023/06/12 12:29:57;;;;;;;10.13;6.72;;;;;;;30.56;37.35;98811.41;5108827;28;20114;-76
2023/06/12 12:32:22;;;;;;;10.70;7.47;;;;;;;30.84;37.35;98847.22;5126133;28;20102;-78
2023/06/12 12:34:48;;;;;;;6.75;5.13;;;;;;;30.66;36.71;98792.00;5128668;28;20020;-76
2023/06/12 12:37:13;;;;;;;6.18;3.92;;;;;;;31.01;35.86;98829.97;5123883;28;20039;-78
2023/06/12 12:39:39;;;;;;;7.55;4.20;;;;;;;31.33;36.05;98841.34;5127518;28;20043;-76
2023/06/12 12:42:04;;;;;;;6.00;4.05;;;;;;;31.34;35.65;98821.94;5127144;28;20457;-77
2023/06/12 12:44:30;;;;;;;5.45;4.22;;;;;;;31.64;34.91;98841.75;5109198;28;20475;-77